Time;durP1;ratioP1;P1;durP2;ratioP2;P2;SDS_P1;SDS_P2;PMS_P1;PMS_P2;Temp;Humidity;BMP_temperature;BMP_pressure;BME280_temperature;BME280_humidity;BME280_pressure;Samples;Min_cycle;Max_cycle;Signal;HPM_P1;HPM_P2
2021/06/12 00:00:41;;;;;;;;;;;;;;;19.20;65.62;101911.56;5137048;27;20100;-39
2021/06/12 00:03:06;;;;;;;4.03;2.40;;;;;;;19.00;67.53;101914.16;5136477;27;20354;-39
2021/06/12 00:05:32;;;;;;;;;;;;;;;19.18;65.37;101911.03;5136677;27;20260;-39
2021/06/12 00:07:58;;;;;;;4.72;2.70;;;;;;;19.02;67.30;101907.31;5136079;27;19903;-40
2021/06/12 00:10:28;;;;;;;5.40;2.75;;;;;;;18.97;67.26;101903.69;5136379;27;20022;-39
2021/06/12 00:12:53;;;;;;;3.08;2.53;;;;;;;19.00;67.10;101914.97;5135992;27;20031;-39
2021/06/12 00:15:20;;;;;;;;;;;;;;;19.10;65.47;101911.50;5136766;27;20072;-39
2021/06/12 00:17:46;;;;;;;3.60;2.45;;;;;;;18.92;67.77;101911.88;5135813;27;19914;-39
2021/06/12 00:20:16;;;;;;;;;;;;;;;19.06;65.52;101902.13;5136955;27;20379;-39
2021/06/12 00:22:44;;;;;;;4.75;2.65;;;;;;;18.90;67.46;101909.41;5134050;27;19912;-40
2021/06/12 00:25:14;;;;;;;4.43;2.42;;;;;;;18.83;67.44;101916.19;5136613;27;20421;-39
2021/06/12 00:27:40;;;;;;;5.55;2.67;;;;;;;18.73;67.91;101911.44;5135106;27;20115;-40
2021/06/12 00:30:09;;;;;;;;;;;;;;;18.92;66.21;101909.97;5136389;27;20466;-39
2021/06/12 00:32:35;;;;;;;3.60;2.50;;;;;;;18.63;68.31;101898.44;5135273;27;19910;-40
2021/06/12 00:35:00;;;;;;;;;;;;;;;18.82;66.10;101907.16;5136559;27;20447;-39
2021/06/12 00:37:25;;;;;;;3.47;2.20;;;;;;;18.62;67.92;101901.44;5135644;27;20010;-39
2021/06/12 00:39:51;;;;;;;;;;;;;;;18.77;66.15;101909.84;5136714;27;20019;-39
2021/06/12 00:42:16;;;;;;;4.05;2.88;;;;;;;18.41;69.03;101901.25;5135116;27;19998;-39
2021/06/12 00:44:42;;;;;;;;;;;;;;;18.58;66.46;101892.91;5136224;27;20015;-39
2021/06/12 00:47:07;;;;;;;6.35;2.63;;;;;;;18.31;69.20;101889.38;5135350;27;19910;-40
2021/06/12 00:49:32;;;;;;;;;;;;;;;18.48;67.05;101895.56;5135470;27;20093;-39
2021/06/12 00:51:58;;;;;;;6.90;3.00;;;;;;;18.36;69.39;101892.97;5135265;27;19933;-39
2021/06/12 00:54:23;;;;;;;;;;;;;;;18.42;67.25;101891.94;5136007;27;20301;-39
2021/06/12 00:56:48;;;;;;;6.57;3.17;;;;;;;18.20;69.54;101891.13;5135459;27;19918;-40
2021/06/12 00:59:13;;;;;;;;;;;;;;;18.37;67.47;101888.31;5135948;27;20106;-39
2021/06/12 01:01:39;;;;;;;4.47;3.03;;;;;;;18.17;69.69;101886.19;5135968;27;19993;-40
2021/06/12 01:04:04;;;;;;;;;;;;;;;18.31;67.64;101884.72;5136372;27;20102;-40
2021/06/12 01:06:30;;;;;;;6.85;3.10;;;;;;;18.11;69.57;101884.50;5134836;27;19903;-40
2021/06/12 01:08:55;;;;;;;;;;;;;;;18.24;67.76;101876.69;5135359;27;20122;-39
2021/06/12 01:11:20;;;;;;;3.60;2.13;;;;;;;18.12;69.89;101869.72;5134979;27;19911;-39
2021/06/12 01:13:52;;;;;;;;;;;;;;;18.22;68.15;101876.13;5135282;27;20261;-40
2021/06/12 01:16:41;;;;;;;5.10;2.78;;;;;;;18.13;69.27;101872.19;5134909;27;19910;-39
2021/06/12 01:19:31;;;;;;;5.85;2.70;;;;;;;18.09;70.20;101876.50;5134595;27;20011;-39
2021/06/12 01:22:01;;;;;;;3.92;2.60;;;;;;;17.96;70.91;101874.19;5135269;27;20019;-39
2021/06/12 01:24:42;;;;;;;4.63;2.80;;;;;;;17.90;70.73;101875.19;5135034;27;20344;-39
2021/06/12 01:27:36;;;;;;;3.47;2.78;;;;;;;17.91;70.89;101879.56;5133843;27;20039;-40
2021/06/12 01:30:28;;;;;;;6.18;2.83;;;;;;;17.89;70.43;101881.75;5134664;27;20019;-39
2021/06/12 01:32:59;;;;;;;6.20;2.95;;;;;;;17.88;71.50;101882.84;5133915;27;20530;-39
2021/06/12 01:35:40;;;;;;;5.47;3.13;;;;;;;17.79;70.90;101881.63;5134956;27;20111;-39
2021/06/12 01:38:09;;;;;;;4.85;2.80;;;;;;;17.69;72.20;101887.75;5134236;27;20019;-39
2021/06/12 01:40:38;;;;;;;4.03;2.80;;;;;;;17.77;72.13;101881.06;5133041;27;20015;-39
2021/06/12 01:43:07;;;;;;;4.28;2.70;;;;;;;17.82;71.95;101875.66;5134741;27;20023;-40
2021/06/12 01:45:33;;;;;;;6.13;3.20;;;;;;;17.65;72.51;101873.75;5134461;27;20042;-39
2021/06/12 01:48:00;;;;;;;4.97;2.40;;;;;;;17.73;71.98;101872.53;5135168;27;20030;-40
2021/06/12 01:50:26;;;;;;;4.15;2.40;;;;;;;17.64;72.12;101879.47;5135039;27;20072;-39
2021/06/12 01:52:54;;;;;;;5.15;2.92;;;;;;;17.58;72.33;101878.59;5134420;27;20024;-39
2021/06/12 01:55:24;;;;;;;4.47;2.28;;;;;;;17.63;72.79;101884.13;5134469;27;20470;-39
2021/06/12 01:57:49;;;;;;;4.43;2.38;;;;;;;17.62;72.41;101882.47;5134052;27;20054;-39
2021/06/12 02:00:15;;;;;;;4.38;2.60;;;;;;;17.58;72.66;101892.25;5133911;27;20026;-39
2021/06/12 02:02:41;;;;;;;;;;;;;;;17.77;70.71;101898.31;5135482;28;20019;-39
2021/06/12 02:05:08;;;;;;;3.83;2.35;;;;;;;17.59;72.75;101890.34;5134348;27;19926;-39
2021/06/12 02:07:36;;;;;;;3.88;2.67;;;;;;;17.60;72.49;101890.09;5134190;27;20019;-40
2021/06/12 02:10:03;;;;;;;5.88;2.50;;;;;;;17.62;72.50;101898.88;5134731;27;20019;-39
2021/06/12 02:12:29;;;;;;;4.78;2.80;;;;;;;17.72;72.34;101892.72;5133818;27;20590;-39
2021/06/12 02:14:56;;;;;;;;;;;;;;;17.81;70.69;101890.38;5134450;27;20050;-39
2021/06/12 02:17:22;;;;;;;4.78;2.42;;;;;;;17.67;72.28;101885.28;5134167;27;20357;-39
2021/06/12 02:19:48;;;;;;;4.57;2.70;;;;;;;17.61;72.89;101878.06;5134717;27;20098;-39
2021/06/12 02:22:14;;;;;;;;;;;;;;;17.76;71.15;101877.47;5134459;27;20015;-39
2021/06/12 02:24:41;;;;;;;4.47;2.70;;;;;;;17.66;72.66;101882.78;5135085;27;19919;-39
2021/06/12 02:27:08;;;;;;;4.18;2.90;;;;;;;17.60;72.94;101878.34;5134548;28;20034;-39
2021/06/12 02:29:34;;;;;;;6.07;2.92;;;;;;;17.63;72.56;101884.13;5134876;27;20139;-39
2021/06/12 02:32:11;;;;;;;4.60;2.80;;;;;;;17.52;73.23;101893.28;5133814;27;20027;-39
2021/06/12 02:34:37;;;;;;;;;;;;;;;17.71;71.26;101886.44;5134711;27;20042;-39
2021/06/12 02:37:04;;;;;;;3.70;2.70;;;;;;;17.62;72.29;101901.63;5133860;28;19907;-39
2021/06/12 02:39:30;;;;;;;4.07;2.58;;;;;;;17.60;72.78;101906.50;5134008;27;20027;-39
2021/06/12 02:41:55;;;;;;;4.13;2.80;;;;;;;17.65;72.79;101908.47;5134073;27;20106;-39
2021/06/12 02:44:21;;;;;;;;;;;;;;;17.77;71.18;101897.47;5138544;27;20056;-39
2021/06/12 02:46:47;;;;;;;4.77;2.57;;;;;;;17.55;73.42;101890.03;5137763;27;19910;-39
2021/06/12 02:49:16;;;;;;;4.90;3.10;;;;;;;17.63;73.00;101899.72;5137364;27;20272;-39
2021/06/12 02:51:45;;;;;;;4.35;3.20;;;;;;;17.50;73.96;101900.88;5137964;27;20028;-39
2021/06/12 02:54:13;;;;;;;4.80;3.30;;;;;;;17.49;73.87;101894.59;5137329;27;20019;-39
2021/06/12 02:56:40;;;;;;;5.05;3.58;;;;;;;17.46;73.70;101889.63;5137763;27;20360;-39
2021/06/12 02:59:11;;;;;;;5.53;3.88;;;;;;;17.40;73.97;101889.81;5137217;27;20489;-39
2021/06/12 03:01:40;;;;;;;7.70;3.53;;;;;;;17.41;74.30;101886.00;5137829;27;20122;-39
2021/06/12 03:04:08;;;;;;;5.85;3.47;;;;;;;17.31;74.11;101874.91;5137403;27;20443;-40
2021/06/12 03:06:36;;;;;;;7.57;3.60;;;;;;;17.30;74.93;101882.28;5137728;27;20102;-39
2021/06/12 03:09:03;;;;;;;5.63;3.60;;;;;;;17.38;74.80;101897.44;5137074;27;20122;-40
2021/06/12 03:11:30;;;;;;;8.07;3.92;;;;;;;17.35;74.83;101893.28;5137771;27;20023;-40
2021/06/12 03:13:57;;;;;;;5.88;3.47;;;;;;;17.37;74.48;101898.50;5136900;27;20023;-39
2021/06/12 03:16:24;;;;;;;6.10;3.42;;;;;;;17.27;75.06;101901.91;5137743;27;20019;-40
2021/06/12 03:18:51;;;;;;;5.05;3.67;;;;;;;17.19;74.88;101886.78;5136810;27;20110;-39
2021/06/12 03:21:21;;;;;;;5.57;3.90;;;;;;;17.10;75.49;101891.00;5137715;27;20015;-39
2021/06/12 03:23:48;;;;;;;6.70;3.88;;;;;;;17.12;75.54;101894.31;5137409;27;20410;-40
2021/06/12 03:26:16;;;;;;;5.57;3.60;;;;;;;17.01;75.71;101895.22;5135677;27;20039;-39
2021/06/12 03:28:41;;;;;;;4.43;3.58;;;;;;;17.07;75.43;101887.94;5135954;27;20023;-40
2021/06/12 03:31:07;;;;;;;;;;;;;;;17.26;73.73;101894.78;5137371;27;20435;-39
2021/06/12 03:33:33;;;;;;;4.82;3.70;;;;;;;17.01;75.87;101891.66;5137075;27;19903;-39
2021/06/12 03:35:58;;;;;;;;;;;;;;;17.22;73.58;101894.47;5137329;27;20514;-39
2021/06/12 03:38:25;;;;;;;5.25;3.05;;;;;;;17.09;75.26;101894.81;5136969;27;19985;-39
2021/06/12 03:40:50;;;;;;;4.55;3.67;;;;;;;17.06;75.96;101884.38;5137002;27;20465;-39
2021/06/12 03:43:17;;;;;;;7.93;4.35;;;;;;;17.00;76.13;101882.66;5136628;27;20023;-39
2021/06/12 03:45:43;;;;;;;5.88;4.30;;;;;;;16.95;76.18;101890.75;5136633;27;20075;-45
2021/06/12 03:48:11;;;;;;;6.38;3.90;;;;;;;16.92;76.19;101885.78;5137103;27;20034;-39
2021/06/12 03:50:39;;;;;;;6.43;4.35;;;;;;;16.94;76.55;101886.38;5137135;27;20026;-39
2021/06/12 03:53:05;;;;;;;6.55;4.22;;;;;;;16.95;76.25;101888.03;5136437;27;20019;-39
2021/06/12 03:55:31;;;;;;;6.13;4.22;;;;;;;16.94;76.73;101884.47;5135810;27;20034;-39
2021/06/12 03:57:56;;;;;;;;;;;;;;;17.13;74.69;101901.44;5136744;27;20449;-40
2021/06/12 04:00:21;;;;;;;9.55;5.32;;;;;;;16.93;76.28;101890.16;5135795;27;20362;-39
2021/06/12 04:02:47;;;;;;;;;;;;;;;17.09;74.62;101905.75;5137539;27;20106;-39
2021/06/12 04:05:12;;;;;;;5.70;4.20;;;;;;;17.05;76.07;101910.06;5136833;27;19908;-39
2021/06/12 04:07:39;;;;;;;7.03;4.90;;;;;;;17.02;76.26;101916.00;5136398;27;20651;-39
2021/06/12 04:10:09;;;;;;;7.90;4.90;;;;;;;16.98;76.81;101914.84;5136181;27;20030;-39
2021/06/12 04:12:34;;;;;;;8.93;5.10;;;;;;;16.87;76.87;101927.50;5136388;27;20011;-39
2021/06/12 04:14:59;;;;;;;;;;;;;;;17.09;74.89;101916.69;5136747;27;20449;-39
2021/06/12 04:17:25;;;;;;;6.90;5.00;;;;;;;17.01;76.20;101922.53;5135629;27;19914;-39
2021/06/12 04:19:50;;;;;;;;;;;;;;;17.15;75.01;101923.88;5136771;27;20023;-40
2021/06/12 04:22:16;;;;;;;9.57;5.70;;;;;;;16.98;76.29;101921.16;5135696;27;19964;-40
2021/06/12 04:24:41;;;;;;;7.95;5.72;;;;;;;16.94;76.95;101924.63;5136562;27;20086;-40
2021/06/12 04:27:06;;;;;;;;;;;;;;;17.13;74.84;101923.31;5136308;27;20109;-40
2021/06/12 04:29:32;;;;;;;7.75;5.72;;;;;;;17.05;76.32;101914.69;5134740;27;19945;-40
2021/06/12 04:31:57;;;;;;;8.25;5.55;;;;;;;17.11;76.45;101911.78;5135801;27;20027;-40
2021/06/12 04:34:23;;;;;;;;;;;;;;;17.21;74.79;101906.47;5136156;27;20023;-40
2021/06/12 04:36:49;;;;;;;7.38;5.97;;;;;;;17.07;76.78;101896.97;5135901;27;19918;-40
2021/06/12 04:39:14;;;;;;;6.70;6.05;;;;;;;17.13;76.22;101901.44;5135653;27;20022;-40
2021/06/12 04:41:39;;;;;;;;;;;;;;;17.24;74.78;101906.00;5135990;27;20049;-40
2021/06/12 04:44:05;;;;;;;8.50;6.67;;;;;;;17.08;76.42;101903.25;5135471;27;19910;-40
2021/06/12 04:46:30;;;;;;;8.52;6.47;;;;;;;17.13;76.71;101912.38;5136264;27;20249;-40
2021/06/12 04:48:56;;;;;;;;;;;;;;;17.23;75.51;101914.44;5136102;27;20023;-40
2021/06/12 04:51:21;;;;;;;9.33;6.93;;;;;;;17.11;76.57;101908.22;5135333;27;19903;-40
2021/06/12 04:53:47;;;;;;;8.77;7.53;;;;;;;17.15;76.34;101914.84;5135337;27;20268;-40
2021/06/12 04:56:12;;;;;;;10.25;7.25;;;;;;;17.19;76.52;101905.91;5135244;27;20024;-40
2021/06/12 04:58:37;;;;;;;;;;;;;;;17.34;75.06;101909.97;5135804;27;20115;-40
2021/06/12 05:01:03;;;;;;;11.20;7.60;;;;;;;17.21;76.54;101909.22;5135714;27;19907;-40
2021/06/12 05:03:28;;;;;;;;;;;;;;;17.39;74.70;101910.03;5135539;27;20027;-40
2021/06/12 05:05:54;;;;;;;9.65;6.93;;;;;;;17.28;76.33;101909.06;5134987;27;19970;-40
2021/06/12 05:08:20;;;;;;;;;;;;;;;17.49;74.57;101921.13;5136193;27;20023;-44
2021/06/12 05:10:45;;;;;;;8.55;7.38;;;;;;;17.38;76.05;101925.63;5135322;27;19914;-40
2021/06/12 05:13:11;;;;;;;;;;;;;;;17.51;74.66;101932.63;5135664;27;20099;-40
2021/06/12 05:15:36;;;;;;;9.63;7.27;;;;;;;17.36;76.15;101925.03;5135740;27;19929;-40
2021/06/12 05:18:05;;;;;;;10.93;8.55;;;;;;;17.35;76.31;101928.00;5134499;27;20695;-40
2021/06/12 05:20:35;;;;;;;11.00;8.05;;;;;;;17.40;76.52;101939.03;5135658;27;20408;-40
2021/06/12 05:23:04;;;;;;;12.05;8.38;;;;;;;17.34;76.61;101940.84;5135418;27;20042;-40
2021/06/12 05:25:31;;;;;;;12.57;8.73;;;;;;;17.38;76.87;101950.22;5134998;27;20514;-39
2021/06/12 05:27:56;;;;;;;10.77;9.27;;;;;;;17.34;76.95;101942.75;5134667;27;20065;-39
2021/06/12 05:30:22;;;;;;;10.82;9.00;;;;;;;17.39;76.41;101949.13;5135071;27;20047;-40
2021/06/12 05:32:47;;;;;;;15.27;9.88;;;;;;;17.36;76.54;101948.78;5134654;27;20090;-40
2021/06/12 05:35:13;;;;;;;;;;;;;;;17.47;75.47;101951.47;5135362;27;20039;-40
2021/06/12 05:37:40;;;;;;;11.05;9.40;;;;;;;17.43;76.98;101946.75;5134521;27;20361;-40
2021/06/12 05:40:07;;;;;;;12.20;9.90;;;;;;;17.42;76.34;101948.66;5134889;27;20022;-40
2021/06/12 05:42:33;;;;;;;11.00;9.38;;;;;;;17.40;76.58;101942.59;5134174;27;20015;-40
2021/06/12 05:44:58;;;;;;;15.70;9.93;;;;;;;17.45;76.72;101950.03;5134228;27;20482;-40
2021/06/12 05:47:23;;;;;;;12.82;10.20;;;;;;;17.49;76.72;101954.75;5134169;27;20069;-40
2021/06/12 05:49:49;;;;;;;;;;;;;;;17.55;75.84;101952.09;5134958;27;20026;-40
2021/06/12 05:52:14;;;;;;;12.65;10.43;;;;;;;17.47;76.80;101962.41;5134326;27;19910;-40
2021/06/12 05:54:39;;;;;;;;;;;;;;;17.54;75.26;101959.47;5135125;27;20023;-40
2021/06/12 05:57:05;;;;;;;13.90;10.00;;;;;;;17.49;76.53;101965.69;5134263;28;20362;-40
2021/06/12 05:59:31;;;;;;;;;;;;;;;17.58;75.39;101971.56;5134785;27;20265;-40
2021/06/12 06:01:56;;;;;;;14.98;9.98;;;;;;;17.47;76.95;101972.47;5133974;27;20003;-40
2021/06/12 06:04:21;;;;;;;;;;;;;;;17.60;75.81;101977.63;5135014;28;20023;-40
2021/06/12 06:06:47;;;;;;;13.60;10.32;;;;;;;17.45;77.12;101972.75;5134166;27;20309;-40
2021/06/12 06:09:13;;;;;;;12.90;10.13;;;;;;;17.42;77.07;101981.47;5134318;27;20404;-40
2021/06/12 06:11:39;;;;;;;13.63;10.85;;;;;;;17.44;77.08;101978.47;5133943;27;20068;-40
2021/06/12 06:14:04;;;;;;;12.70;11.18;;;;;;;17.39;77.68;101981.13;5133963;27;20035;-40
2021/06/12 06:16:29;;;;;;;12.50;11.10;;;;;;;17.47;77.53;101978.81;5134176;27;20055;-40
2021/06/12 06:18:55;;;;;;;17.27;11.10;;;;;;;17.53;77.54;101974.25;5137605;27;20030;-40
2021/06/12 06:21:20;;;;;;;;;;;;;;;17.63;76.33;101970.81;5139297;27;20023;-40
2021/06/12 06:23:47;;;;;;;11.85;10.18;;;;;;;17.57;77.26;101983.59;5138500;27;20323;-40
2021/06/12 06:26:12;;;;;;;13.23;10.95;;;;;;;17.55;77.37;101977.53;5138263;27;20031;-40
2021/06/12 06:28:38;;;;;;;12.88;10.82;;;;;;;17.56;77.35;101981.91;5138240;27;20031;-40
2021/06/12 06:31:03;;;;;;;;;;;;;;;17.77;76.25;101976.81;5138675;27;20027;-40
2021/06/12 06:33:28;;;;;;;13.07;10.48;;;;;;;17.75;77.16;101968.84;5136709;27;19908;-40
2021/06/12 06:35:54;;;;;;;;;;;;;;;17.94;75.82;101974.84;5138470;27;20431;-40
2021/06/12 06:38:20;;;;;;;14.52;11.52;;;;;;;17.93;76.20;101965.00;5137922;27;19914;-40
2021/06/12 06:40:45;;;;;;;14.35;11.20;;;;;;;17.94;76.60;101969.38;5138395;27;20019;-40
2021/06/12 06:43:12;;;;;;;;;;;;;;;18.13;75.06;101973.47;5138072;27;20386;-40
2021/06/12 06:45:40;;;;;;;15.20;10.82;;;;;;;18.23;75.68;101972.78;5138250;27;19967;-40
2021/06/12 06:48:06;;;;;;;14.95;11.73;;;;;;;18.36;75.27;101966.09;5137770;27;20047;-40
2021/06/12 06:50:31;;;;;;;;;;;;;;;18.64;74.71;101970.50;5138188;27;20019;-40
2021/06/12 06:52:59;;;;;;;13.90;11.23;;;;;;;18.70;74.45;101961.28;5137732;27;19904;-40
2021/06/12 06:55:24;;;;;;;14.52;11.13;;;;;;;18.77;73.68;101970.94;5137358;27;20264;-40
2021/06/12 06:57:49;;;;;;;;;;;;;;;18.91;73.33;101979.59;5137616;27;20019;-40
2021/06/12 07:00:15;;;;;;;12.50;10.60;;;;;;;18.74;73.39;101990.66;5137540;27;19907;-40
2021/06/12 07:02:40;;;;;;;;;;;;;;;18.86;72.89;101986.94;5137902;27;20023;-40
2021/06/12 07:05:07;;;;;;;12.07;10.65;;;;;;;18.72;73.32;101992.81;5137777;27;19907;-40
2021/06/12 07:07:32;;;;;;;17.20;11.30;;;;;;;18.75;73.07;101991.47;5137312;27;20447;-40
2021/06/12 07:09:57;;;;;;;;;;;;;;;18.91;72.90;102000.69;5137854;27;20029;-39
2021/06/12 07:12:23;;;;;;;14.68;9.77;;;;;;;18.87;72.58;101991.31;5137324;27;20354;-40
2021/06/12 07:14:48;;;;;;;;;;;;;;;19.08;72.09;101992.34;5137777;27;20025;-40
2021/06/12 07:17:13;;;;;;;13.57;10.18;;;;;;;19.10;71.88;101996.47;5137141;27;19907;-40
2021/06/12 07:19:39;;;;;;;;;;;;;;;19.27;71.98;101991.69;5137894;27;20506;-40
2021/06/12 07:22:05;;;;;;;12.60;9.57;;;;;;;19.31;71.27;101989.25;5136775;27;19903;-40
2021/06/12 07:24:30;;;;;;;;;;;;;;;19.51;71.18;101988.56;5137840;27;20084;-40
2021/06/12 07:26:55;;;;;;;13.07;8.82;;;;;;;19.64;70.31;101974.44;5137544;27;19907;-40
2021/06/12 07:29:21;;;;;;;;;;;;;;;19.89;70.32;101987.50;5136307;27;20030;-40
2021/06/12 07:31:46;;;;;;;8.63;7.30;;;;;;;19.95;68.24;101974.63;5136568;27;19908;-40
2021/06/12 07:34:12;;;;;;;10.95;7.95;;;;;;;19.96;67.45;101987.25;5136860;27;20024;-40
2021/06/12 07:36:37;;;;;;;;;;;;;;;20.12;68.08;101986.25;5136909;27;20502;-40
2021/06/12 07:39:04;;;;;;;10.55;7.03;;;;;;;19.95;66.57;101986.41;5136537;27;19907;-40
2021/06/12 07:41:31;;;;;;;10.27;8.05;;;;;;;19.86;66.38;101992.69;5137072;27;20096;-40
2021/06/12 07:43:56;;;;;;;9.45;8.07;;;;;;;19.89;66.68;101992.97;5137534;27;20393;-40
2021/06/12 07:46:21;;;;;;;;;;;;;;;20.08;67.03;102000.78;5137472;27;20075;-40
2021/06/12 07:48:47;;;;;;;13.27;7.22;;;;;;;19.95;66.91;102000.16;5136539;27;19914;-40
2021/06/12 07:51:12;;;;;;;;;;;;;;;20.11;66.63;102014.81;5137136;27;20024;-40
2021/06/12 07:53:38;;;;;;;8.70;6.78;;;;;;;19.97;66.20;102011.72;5136191;27;19911;-39
2021/06/12 07:56:03;;;;;;;;;;;;;;;20.12;66.04;102013.72;5137251;27;20025;-41
2021/06/12 07:58:28;;;;;;;9.43;6.47;;;;;;;20.04;66.06;102015.03;5136319;27;19914;-40
2021/06/12 08:00:54;;;;;;;9.73;6.43;;;;;;;19.95;65.80;101997.41;5137273;27;20020;-40
2021/06/12 08:03:19;;;;;;;;;;;;;;;20.14;66.34;102006.03;5136457;27;20045;-40
2021/06/12 08:05:44;;;;;;;9.50;5.70;;;;;;;20.06;65.14;102012.84;5136559;27;20323;-40
2021/06/12 08:08:10;;;;;;;8.85;6.00;;;;;;;20.09;65.59;102007.91;5136205;27;20031;-40
2021/06/12 08:10:35;;;;;;;;;;;;;;;20.25;65.59;102002.25;5136681;27;20362;-40
2021/06/12 08:13:00;;;;;;;8.75;5.68;;;;;;;20.18;64.30;102004.41;5136050;27;20365;-41
2021/06/12 08:15:26;;;;;;;7.60;5.80;;;;;;;20.22;63.95;102010.19;5136138;27;20047;-40
2021/06/12 08:17:52;;;;;;;;;;;;;;;20.41;64.85;102010.56;5136403;27;20023;-40
2021/06/12 08:20:17;;;;;;;7.18;4.38;;;;;;;20.43;61.59;102013.84;5136560;27;19907;-40
2021/06/12 08:22:43;;;;;;;;;;;;;;;20.60;62.37;102010.94;5136066;27;20039;-40
2021/06/12 08:25:09;;;;;;;3.33;2.53;;;;;;;20.43;57.95;102022.91;5136263;27;19911;-40
2021/06/12 08:27:35;;;;;;;5.28;2.83;;;;;;;20.36;58.08;102018.78;5136028;27;20027;-40
2021/06/12 08:30:01;;;;;;;;;;;;;;;20.46;58.62;102027.06;5135948;27;20110;-40
2021/06/12 08:32:26;;;;;;;5.88;2.35;;;;;;;20.38;57.04;102027.56;5135763;27;19951;-40
2021/06/12 08:34:51;;;;;;;;;;;;;;;20.48;57.99;102027.63;5136174;27;20117;-40
2021/06/12 08:37:16;;;;;;;5.97;2.23;;;;;;;20.43;56.36;102030.31;5135334;27;19911;-40
2021/06/12 08:39:42;;;;;;;;;;;;;;;20.60;58.63;102036.47;5136019;27;20260;-40
2021/06/12 08:42:08;;;;;;;4.55;2.20;;;;;;;20.65;56.26;102033.75;5135953;27;20319;-40
2021/06/12 08:44:34;;;;;;;4.43;2.20;;;;;;;20.82;56.13;102037.09;5135492;27;20035;-40
2021/06/12 08:47:00;;;;;;;4.13;2.10;;;;;;;20.73;54.51;102049.69;5135369;27;20425;-40
2021/06/12 08:49:25;;;;;;;;;;;;;;;20.82;55.30;102050.00;5136166;27;20053;-40
2021/06/12 08:51:51;;;;;;;7.70;2.67;;;;;;;20.64;54.47;102039.50;5135314;27;19910;-40
2021/06/12 08:54:17;;;;;;;;;;;;;;;20.81;56.34;102049.19;5135758;27;20404;-40
2021/06/12 08:56:45;;;;;;;4.90;2.17;;;;;;;20.57;54.51;102048.00;5135860;27;19903;-40
2021/06/12 08:59:11;;;;;;;5.10;2.90;;;;;;;20.44;55.68;102051.19;5135136;27;20415;-40
2021/06/12 09:01:36;;;;;;;;;;;;;;;20.54;56.11;102060.34;5135714;27;20065;-40
2021/06/12 09:04:01;;;;;;;4.80;2.72;;;;;;;20.35;56.21;102048.16;5134822;27;19935;-40
2021/06/12 09:06:27;;;;;;;5.35;2.75;;;;;;;20.38;55.90;102063.28;5135618;27;20106;-40
2021/06/12 09:08:52;;;;;;;5.68;2.63;;;;;;;20.35;55.37;102058.28;5135028;27;20512;-40
2021/06/12 09:11:19;;;;;;;;;;;;;;;20.49;56.10;102065.00;5135771;27;20466;-40
2021/06/12 09:13:57;;;;;;;4.43;2.30;;;;;;;20.46;55.72;102069.09;5134918;27;19963;-40
2021/06/12 09:16:23;;;;;;;5.53;2.35;;;;;;;20.55;55.19;102069.44;5135232;27;20030;-40
2021/06/12 09:18:48;;;;;;;;;;;;;;;20.68;56.21;102066.16;5135189;27;20047;-40
2021/06/12 09:21:40;;;;;;;5.15;2.50;;;;;;;20.58;55.90;102071.63;5135157;27;19934;-48
2021/06/12 09:24:19;;;;;;;5.55;2.45;;;;;;;20.46;55.59;102068.25;5130546;27;20035;-40
2021/06/12 09:26:47;;;;;;;5.65;2.47;;;;;;;20.54;54.70;102065.84;5135564;27;20034;-41
2021/06/12 09:29:17;;;;;;;5.90;2.70;;;;;;;20.72;53.86;102064.53;5135268;27;20033;-41
2021/06/12 09:31:45;;;;;;;5.30;2.25;;;;;;;20.95;53.26;102065.16;5135570;27;20019;-41
2021/06/12 09:34:13;;;;;;;5.10;2.75;;;;;;;21.06;53.25;102069.59;5135450;27;20031;-39
2021/06/12 09:36:39;;;;;;;4.78;2.67;;;;;;;21.37;52.96;102066.91;5134303;27;20023;-39
2021/06/12 09:39:17;;;;;;;5.82;2.53;;;;;;;21.54;51.92;102071.06;5135287;27;20020;-39
2021/06/12 09:41:45;;;;;;;6.60;2.17;;;;;;;21.55;51.43;102066.38;5134863;27;20023;-39
2021/06/12 09:44:11;;;;;;;3.92;2.08;;;;;;;21.68;49.86;102079.59;5134102;27;20087;-40
2021/06/12 09:46:45;;;;;;;4.90;2.72;;;;;;;21.68;48.78;102078.75;5135059;27;20023;-41
2021/06/12 09:49:11;;;;;;;5.45;2.40;;;;;;;21.61;47.91;102090.03;5134500;27;20030;-44
2021/06/12 09:51:37;;;;;;;6.30;2.83;;;;;;;21.50;48.56;102082.88;5134430;27;20026;-40
2021/06/12 09:54:05;;;;;;;5.25;2.20;;;;;;;21.28;48.82;102085.88;5133862;27;20084;-41
2021/06/12 09:56:32;;;;;;;7.70;2.65;;;;;;;21.00;49.62;102088.00;5134992;27;20110;-40
2021/06/12 09:58:58;;;;;;;6.20;2.40;;;;;;;21.04;49.78;102091.88;5134243;27;20023;-41
2021/06/12 10:01:30;;;;;;;4.55;2.50;;;;;;;21.05;49.88;102099.00;5134119;27;20458;-40
2021/06/12 10:04:13;;;;;;;7.05;2.60;;;;;;;21.25;49.04;102091.91;5134506;27;20050;-40
2021/06/12 10:06:38;;;;;;;5.03;2.20;;;;;;;21.32;47.84;102095.25;5134377;27;20046;-41
2021/06/12 10:09:04;;;;;;;;;;;;;;;21.65;48.76;102093.88;5134923;27;20019;-41
2021/06/12 10:11:31;;;;;;;6.20;2.15;;;;;;;21.81;47.18;102092.81;5134536;27;19997;-41
2021/06/12 10:13:58;;;;;;;5.90;2.60;;;;;;;22.03;46.21;102097.19;5134187;27;20027;-40
2021/06/12 10:16:24;;;;;;;6.20;2.22;;;;;;;22.15;46.44;102099.66;5133861;27;20450;-41
2021/06/12 10:18:54;;;;;;;7.28;2.70;;;;;;;22.05;44.99;102115.06;5133734;27;20051;-40
2021/06/12 10:21:21;;;;;;;8.82;2.55;;;;;;;21.97;45.15;102098.28;5135040;27;20045;-40
2021/06/12 10:23:48;;;;;;;4.65;2.38;;;;;;;22.06;45.99;102096.63;5134288;27;20134;-40
2021/06/12 10:26:16;;;;;;;6.50;2.50;;;;;;;22.07;46.21;102109.28;5134478;27;20031;-40
2021/06/12 10:28:42;;;;;;;4.63;1.85;;;;;;;22.17;46.27;102103.78;5134110;27;20049;-40
2021/06/12 10:31:15;;;;;;;4.90;1.98;;;;;;;22.28;45.31;102108.16;5134173;27;20023;-40
2021/06/12 10:33:43;;;;;;;5.72;2.33;;;;;;;22.24;44.67;102104.31;5134018;27;20023;-40
2021/06/12 10:36:19;;;;;;;6.05;2.60;;;;;;;22.12;45.93;102100.22;5134545;27;20035;-40
2021/06/12 10:38:45;;;;;;;9.10;2.95;;;;;;;22.27;44.59;102103.75;5134467;27;20155;-41
2021/06/12 10:41:25;;;;;;;6.93;2.45;;;;;;;22.32;45.23;102116.72;5133970;27;20459;-40
2021/06/12 10:43:57;;;;;;;7.93;2.88;;;;;;;22.15;44.60;102111.50;5134288;27;20011;-41
2021/06/12 10:46:28;;;;;;;4.28;2.20;;;;;;;22.08;44.89;102111.75;5133938;27;20023;-40
2021/06/12 10:48:55;;;;;;;6.95;2.80;;;;;;;22.02;45.35;102117.56;5134132;27;20076;-40
2021/06/12 10:51:27;;;;;;;6.10;2.65;;;;;;;21.96;45.06;102118.66;5133623;27;20015;-41
2021/06/12 10:54:07;;;;;;;6.63;2.58;;;;;;;21.90;46.01;102125.28;5133851;28;20023;-40
2021/06/12 10:56:34;;;;;;;5.00;2.22;;;;;;;21.67;45.67;102121.97;5134158;27;20366;-40
2021/06/12 10:59:00;;;;;;;11.05;2.85;;;;;;;21.76;45.91;102125.00;5133387;27;20083;-40
2021/06/12 11:01:25;;;;;;;7.13;2.30;;;;;;;21.79;46.16;102121.69;5133831;27;20455;-40
2021/06/12 11:04:15;;;;;;;8.50;3.13;;;;;;;21.85;45.94;102134.34;5135843;27;20023;-40
2021/06/12 11:06:49;;;;;;;6.00;2.42;;;;;;;22.12;44.78;102133.28;5137191;27;20023;-40
2021/06/12 11:09:15;;;;;;;7.40;2.58;;;;;;;22.02;44.21;102120.31;5137460;27;20459;-40
2021/06/12 11:11:45;;;;;;;6.55;2.50;;;;;;;22.00;44.86;102119.75;5137972;27;20130;-41
2021/06/12 11:14:23;;;;;;;4.53;2.20;;;;;;;22.20;44.82;102125.25;5137359;27;20474;-41
2021/06/12 11:19:47;;;;;;;6.78;2.35;;;;;;;22.92;42.70;102123.13;5137244;27;20102;-41
2021/06/12 11:22:30;;;;;;;9.65;2.60;;;;;;;23.00;43.13;102114.28;5137340;27;20371;-41
2021/06/12 11:24:57;;;;;;;7.32;2.17;;;;;;;22.99;42.85;102115.38;5138023;27;20045;-40
2021/06/12 11:27:34;;;;;;;5.22;1.85;;;;;;;23.01;42.04;102120.59;5137177;27;20043;-41
2021/06/12 11:30:21;;;;;;;;;;;;;;;23.40;42.35;102126.16;5138377;27;20071;-41
2021/06/12 11:32:55;;;;;;;7.97;2.42;;;;;;;23.12;42.01;102119.44;5137563;27;19903;-38
2021/06/12 11:35:57;;;;;;;7.28;2.25;;;;;;;23.27;41.83;102133.13;5137196;27;20038;-40
2021/06/12 11:38:31;;;;;;;5.68;2.22;;;;;;;23.29;41.45;102133.69;5131393;27;20498;-41
2021/06/12 11:40:58;;;;;;;6.43;2.30;;;;;;;23.57;40.62;102128.50;5136868;27;20111;-41
2021/06/12 11:43:34;;;;;;;7.45;2.38;;;;;;;23.53;40.83;102130.22;5136454;27;20463;-39